createdAt,value
2022-10-23T00:01:29.240Z,12.60
2022-10-23T00:04:02.097Z,12.60
2022-10-23T00:06:30.373Z,12.60
2022-10-23T00:08:57.771Z,12.50
2022-10-23T00:11:27.629Z,12.50
2022-10-23T00:13:57.715Z,12.40
2022-10-23T00:16:25.443Z,12.30
2022-10-23T00:18:52.699Z,12.30
2022-10-23T00:21:20.366Z,12.30
2022-10-23T00:23:47.936Z,12.30
2022-10-23T00:26:15.990Z,12.30
2022-10-23T00:28:49.360Z,12.30
2022-10-23T00:31:17.507Z,12.20
2022-10-23T00:33:46.087Z,12.20
2022-10-23T00:36:16.040Z,12.20
2022-10-23T00:38:45.038Z,12.20
2022-10-23T00:41:24.922Z,12.20
2022-10-23T00:44:09.727Z,12.10
2022-10-23T00:46:39.290Z,12.10
2022-10-23T00:49:08.023Z,12.10
2022-10-23T00:51:45.252Z,12.10
2022-10-23T00:54:24.355Z,12.10
2022-10-23T00:56:56.225Z,12.00
2022-10-23T00:59:24.390Z,12.00
2022-10-23T01:01:52.200Z,11.90
2022-10-23T01:04:20.435Z,11.90
2022-10-23T01:06:56.628Z,11.90
2022-10-23T01:09:56.408Z,11.80
2022-10-23T01:12:33.863Z,11.80
2022-10-23T01:15:12.858Z,11.80
2022-10-23T01:17:51.036Z,11.80
2022-10-23T01:20:32.018Z,11.80
2022-10-23T01:23:18.206Z,11.80
2022-10-23T01:25:57.696Z,11.80
2022-10-23T01:28:36.219Z,11.80
2022-10-23T01:31:09.090Z,11.70
2022-10-23T01:33:43.003Z,11.70
2022-10-23T01:36:16.821Z,11.70
2022-10-23T01:38:47.407Z,11.70
2022-10-23T01:41:31.574Z,11.70
2022-10-23T01:44:11.141Z,11.80
2022-10-23T01:46:40.027Z,11.80
2022-10-23T01:49:13.022Z,11.80
2022-10-23T01:51:44.221Z,11.80
2022-10-23T01:54:14.690Z,11.80
2022-10-23T01:56:46.746Z,11.80
2022-10-23T01:59:20.978Z,11.80
2022-10-23T02:01:52.060Z,11.80
2022-10-23T02:04:29.027Z,11.80
2022-10-23T02:06:56.628Z,11.80
2022-10-23T02:09:24.162Z,11.70
2022-10-23T02:11:56.946Z,11.70
2022-10-23T02:14:39.181Z,11.70
2022-10-23T02:17:20.888Z,11.70
2022-10-23T02:20:00.716Z,11.70
2022-10-23T02:22:36.994Z,11.60
2022-10-23T02:25:20.492Z,11.50
2022-10-23T02:27:55.150Z,11.50
2022-10-23T02:30:25.352Z,11.50
2022-10-23T02:33:08.057Z,11.50
2022-10-23T02:35:35.875Z,11.50
2022-10-23T02:38:49.130Z,11.40
2022-10-23T02:41:31.834Z,11.40
2022-10-23T02:44:26.571Z,11.40
2022-10-23T02:47:05.991Z,11.30
2022-10-23T02:49:33.388Z,11.30
2022-10-23T02:52:07.099Z,11.30
2022-10-23T02:55:02.104Z,11.30
2022-10-23T02:57:35.636Z,11.20
2022-10-23T03:00:15.046Z,11.30
2022-10-23T03:02:59.270Z,11.30
2022-10-23T03:05:37.295Z,11.30
2022-10-23T03:08:07.978Z,11.30
2022-10-23T03:10:36.587Z,11.30
2022-10-23T03:13:04.120Z,11.30
2022-10-23T03:15:44.766Z,11.30
2022-10-23T03:18:15.710Z,11.30
2022-10-23T03:20:48.360Z,11.30
2022-10-23T03:23:16.134Z,11.30
2022-10-23T03:25:43.428Z,11.20
2022-10-23T03:28:23.164Z,11.20
2022-10-23T03:30:50.555Z,11.10
2022-10-23T03:33:18.066Z,11.10
2022-10-23T03:35:45.413Z,11.00
2022-10-23T03:38:15.130Z,10.90
2022-10-23T03:40:43.552Z,10.90
2022-10-23T03:43:13.049Z,10.90
2022-10-23T03:45:41.588Z,10.90
2022-10-23T03:48:09.132Z,10.90
2022-10-23T03:50:37.230Z,10.80
2022-10-23T03:53:05.916Z,10.80
2022-10-23T03:55:34.905Z,10.80
2022-10-23T03:58:02.340Z,10.70
2022-10-23T04:00:29.883Z,10.70
2022-10-23T04:02:57.335Z,10.60
2022-10-23T04:05:24.758Z,10.60
2022-10-23T04:07:56.614Z,10.60
2022-10-23T04:10:24.196Z,10.50
2022-10-23T04:12:51.567Z,10.50
2022-10-23T04:15:18.949Z,10.40
2022-10-23T04:17:47.014Z,10.30
2022-10-23T04:20:14.576Z,10.30
2022-10-23T04:22:42.389Z,10.30
2022-10-23T04:25:13.010Z,10.30
2022-10-23T04:27:40.408Z,10.30
2022-10-23T04:30:08.919Z,10.30
2022-10-23T04:32:36.152Z,10.30
2022-10-23T04:35:05.911Z,10.20
2022-10-23T04:37:33.160Z,10.20
2022-10-23T04:40:00.917Z,10.20
2022-10-23T04:42:28.297Z,10.20
2022-10-23T04:44:59.100Z,10.20
2022-10-23T04:47:26.393Z,10.20
2022-10-23T04:49:57.703Z,10.20
2022-10-23T04:52:43.499Z,10.20
2022-10-23T04:55:50.785Z,10.10
2022-10-23T04:58:25.354Z,10.10
2022-10-23T05:00:53.855Z,10.00
2022-10-23T05:03:25.708Z,10.00
2022-10-23T05:05:55.531Z,10.00
2022-10-23T05:08:45.761Z,10.00
2022-10-23T05:11:29.245Z,10.00
2022-10-23T05:13:56.604Z,10.00
2022-10-23T05:16:48.238Z,10.00
2022-10-23T05:19:24.130Z,10.00
2022-10-23T05:21:55.981Z,10.00
2022-10-23T05:24:27.338Z,10.00
2022-10-23T05:26:58.986Z,10.00
2022-10-23T05:29:26.560Z,10.00
2022-10-23T05:31:59.926Z,10.00
2022-10-23T05:34:33.111Z,10.00
2022-10-23T05:37:03.293Z,10.00
2022-10-23T05:39:35.478Z,10.10
2022-10-23T05:42:07.010Z,10.00
2022-10-23T05:44:34.405Z,10.00
2022-10-23T05:47:18.936Z,10.00
2022-10-23T05:50:02.662Z,10.10
2022-10-23T05:52:48.912Z,10.20
2022-10-23T05:55:30.422Z,10.40
2022-10-23T05:58:16.117Z,10.50
2022-10-23T06:01:09.516Z,10.70
2022-10-23T06:03:54.256Z,10.80
2022-10-23T06:06:26.904Z,10.90
2022-10-23T06:08:55.022Z,11.00
2022-10-23T06:11:22.950Z,11.10
2022-10-23T06:14:00.662Z,11.20
2022-10-23T06:16:28.090Z,11.20
2022-10-23T06:18:55.890Z,11.20
2022-10-23T06:21:24.287Z,11.20
2022-10-23T06:23:52.925Z,11.30
2022-10-23T06:26:39.467Z,11.30
2022-10-23T06:29:10.039Z,11.40
2022-10-23T06:31:38.870Z,11.50
2022-10-23T06:34:07.035Z,11.50
2022-10-23T06:36:34.444Z,11.60
2022-10-23T06:39:22.364Z,11.70
2022-10-23T06:42:09.947Z,11.80
2022-10-23T06:45:09.722Z,12.00
2022-10-23T06:47:52.207Z,12.10
2022-10-23T06:50:53.962Z,12.30
2022-10-23T06:53:30.974Z,12.50
2022-10-23T06:56:08.399Z,12.60
2022-10-23T06:58:38.942Z,12.70
2022-10-23T07:01:16.706Z,12.90
2022-10-23T07:03:45.453Z,13.00
2022-10-23T07:06:14.654Z,13.20
2022-10-23T07:08:42.177Z,13.20
2022-10-23T07:11:35.466Z,13.40
2022-10-23T07:14:02.843Z,13.60
2022-10-23T07:16:32.004Z,13.80
2022-10-23T07:19:01.208Z,13.90
2022-10-23T07:21:30.606Z,14.00
2022-10-23T07:24:11.483Z,14.10
2022-10-23T07:26:41.465Z,14.20
2022-10-23T07:29:09.264Z,14.40
2022-10-23T07:31:36.579Z,14.50
2022-10-23T07:34:30.159Z,14.70
2022-10-23T07:37:15.155Z,14.90
2022-10-23T07:39:43.526Z,15.00
2022-10-23T07:42:12.042Z,15.20
2022-10-23T07:44:41.180Z,15.20
2022-10-23T07:47:09.200Z,15.30
2022-10-23T07:49:37.013Z,15.40
2022-10-23T07:52:05.714Z,15.60
2022-10-23T07:54:52.336Z,15.70
2022-10-23T07:57:21.525Z,15.90
2022-10-23T07:59:59.286Z,16.00
2022-10-23T08:02:37.759Z,16.00
2022-10-23T08:05:26.000Z,16.10
2022-10-23T08:07:58.863Z,16.20
2022-10-23T08:10:26.285Z,16.20
2022-10-23T08:12:53.649Z,16.30
2022-10-23T08:15:29.498Z,16.30
2022-10-23T08:18:03.753Z,16.30
2022-10-23T08:20:46.433Z,16.40
2022-10-23T08:23:17.065Z,16.40
2022-10-23T08:25:46.057Z,16.50
2022-10-23T08:28:16.539Z,16.60
2022-10-23T08:30:53.481Z,16.60
2022-10-23T08:33:21.115Z,16.50
2022-10-23T08:35:48.483Z,16.50
2022-10-23T08:38:24.513Z,16.50
2022-10-23T08:40:52.711Z,16.60
2022-10-23T08:43:47.104Z,16.60
2022-10-23T08:46:40.564Z,16.50
2022-10-23T08:49:55.424Z,16.30
2022-10-23T08:52:47.971Z,16.20
2022-10-23T08:55:26.218Z,16.20
2022-10-23T08:58:11.168Z,16.20
2022-10-23T09:00:38.507Z,16.10
2022-10-23T09:03:06.242Z,16.10
2022-10-23T09:05:55.966Z,16.10
2022-10-23T09:08:47.029Z,16.10
2022-10-23T09:11:32.535Z,16.10
2022-10-23T09:14:31.650Z,16.10
2022-10-23T09:17:28.442Z,16.20
2022-10-23T09:20:21.843Z,16.40
2022-10-23T09:22:53.351Z,16.40
2022-10-23T09:25:35.505Z,16.50
2022-10-23T09:28:05.579Z,16.40
2022-10-23T09:30:42.783Z,16.40
2022-10-23T09:33:28.166Z,16.50
2022-10-23T09:36:18.813Z,16.50
2022-10-23T09:38:46.247Z,16.50
2022-10-23T09:41:36.602Z,16.50
2022-10-23T09:44:20.396Z,16.50
2022-10-23T09:49:29.279Z,16.30
2022-10-23T09:52:11.730Z,16.30
2022-10-23T09:54:48.794Z,16.40
2022-10-23T09:57:40.294Z,16.40
2022-10-23T10:00:23.205Z,16.30
2022-10-23T10:03:00.165Z,16.20
2022-10-23T10:06:02.321Z,16.20
2022-10-23T10:08:53.042Z,16.20
2022-10-23T10:11:37.496Z,16.10
2022-10-23T10:14:38.994Z,16.00
2022-10-23T10:17:31.112Z,16.00
2022-10-23T10:20:23.277Z,16.10
2022-10-23T10:22:57.279Z,16.10
2022-10-23T10:25:55.155Z,16.20
2022-10-23T10:28:40.724Z,16.20
2022-10-23T10:31:38.492Z,16.30
2022-10-23T10:34:30.158Z,16.40
2022-10-23T10:37:07.743Z,16.50
2022-10-23T10:40:01.926Z,16.60
2022-10-23T10:43:04.868Z,16.70
2022-10-23T10:45:38.769Z,16.70
2022-10-23T10:48:28.083Z,16.80
2022-10-23T10:51:38.994Z,16.90
2022-10-23T10:54:33.227Z,16.90
2022-10-23T10:57:06.528Z,17.10
2022-10-23T10:59:39.367Z,17.20
2022-10-23T11:02:42.583Z,17.20
2022-10-23T11:05:22.495Z,17.30
2022-10-23T11:08:06.031Z,17.30
2022-10-23T11:10:36.411Z,17.20
2022-10-23T11:13:04.593Z,17.20
2022-10-23T11:15:41.108Z,17.30
2022-10-23T11:18:18.221Z,17.50
2022-10-23T11:21:19.615Z,17.60
2022-10-23T11:27:04.800Z,18.10
2022-10-23T11:29:44.164Z,18.40
2022-10-23T11:32:23.450Z,18.60
2022-10-23T11:35:15.573Z,18.80
2022-10-23T11:37:43.125Z,19.00
2022-10-23T11:40:10.543Z,19.10
2022-10-23T11:42:41.122Z,19.20
2022-10-23T11:45:27.207Z,19.30
2022-10-23T11:48:01.021Z,19.50
2022-10-23T11:50:38.010Z,19.60
2022-10-23T11:53:22.827Z,19.60
2022-10-23T11:56:17.071Z,19.70
2022-10-23T11:59:06.223Z,19.80
2022-10-23T12:01:33.526Z,19.90
2022-10-23T12:04:06.386Z,19.90
2022-10-23T12:06:40.764Z,20.00
2022-10-23T12:09:30.426Z,19.80
2022-10-23T12:12:09.714Z,19.60
2022-10-23T12:14:49.968Z,19.50
2022-10-23T12:17:23.303Z,19.30
2022-10-23T12:19:52.212Z,19.10
2022-10-23T12:22:22.378Z,19.10
2022-10-23T12:24:59.650Z,19.20
2022-10-23T12:27:40.661Z,19.20
2022-10-23T12:30:24.963Z,19.20
2022-10-23T12:33:10.773Z,19.20
2022-10-23T12:36:05.174Z,19.20
2022-10-23T12:38:35.579Z,19.10
2022-10-23T12:41:11.593Z,19.10
2022-10-23T12:43:41.368Z,19.20
2022-10-23T12:46:20.284Z,19.10
2022-10-23T12:48:49.520Z,19.00
2022-10-23T12:51:24.400Z,18.90
2022-10-23T12:53:52.001Z,18.90
2022-10-23T12:56:20.132Z,18.90
2022-10-23T12:59:01.305Z,18.80
2022-10-23T13:01:30.061Z,18.90
2022-10-23T13:04:02.505Z,18.90
2022-10-23T13:06:30.057Z,18.90
2022-10-23T13:08:57.778Z,18.90
2022-10-23T13:11:35.128Z,18.80
2022-10-23T13:14:13.662Z,18.70
2022-10-23T13:16:41.021Z,18.60
2022-10-23T13:19:26.130Z,18.50
2022-10-23T13:21:53.804Z,18.40
2022-10-23T13:24:23.104Z,18.30
2022-10-23T13:26:51.074Z,18.20
2022-10-23T13:29:34.612Z,18.10
2022-10-23T13:32:12.535Z,18.00
2022-10-23T13:34:39.933Z,18.00
2022-10-23T13:37:28.719Z,17.90
2022-10-23T13:40:05.373Z,17.90
2022-10-23T13:42:32.626Z,17.90
2022-10-23T13:45:00.223Z,17.90
2022-10-23T13:47:27.782Z,18.00
2022-10-23T13:49:55.158Z,18.10
2022-10-23T13:52:23.861Z,18.20
2022-10-23T13:54:51.348Z,18.20
2022-10-23T13:57:18.725Z,18.20
2022-10-23T13:59:46.085Z,18.10
2022-10-23T14:02:23.726Z,18.10
2022-10-23T14:04:51.193Z,18.00
2022-10-23T14:07:18.705Z,17.90
2022-10-23T14:09:46.331Z,17.80
2022-10-23T14:12:14.087Z,17.60
2022-10-23T14:14:41.336Z,17.50
2022-10-23T14:17:08.652Z,17.30
2022-10-23T14:22:04.275Z,17.00
2022-10-23T14:24:31.516Z,16.90
2022-10-23T14:26:59.764Z,16.80
2022-10-23T14:29:27.731Z,16.70
2022-10-23T14:31:55.140Z,16.60
2022-10-23T14:34:22.561Z,16.50
2022-10-23T14:36:56.739Z,16.40
2022-10-23T14:39:31.383Z,16.50
2022-10-23T14:41:58.809Z,16.40
2022-10-23T14:44:26.518Z,16.40
2022-10-23T14:46:53.933Z,16.50
2022-10-23T14:49:21.668Z,16.60
2022-10-23T14:51:48.903Z,16.60
2022-10-23T14:54:16.624Z,16.70
2022-10-23T14:56:44.276Z,16.70
2022-10-23T14:59:13.274Z,16.70
2022-10-23T15:01:45.317Z,16.70
2022-10-23T15:04:14.663Z,16.70
2022-10-23T15:06:43.168Z,16.70
2022-10-23T15:09:10.794Z,16.60
2022-10-23T15:11:38.078Z,16.50
2022-10-23T15:14:05.704Z,16.40
2022-10-23T15:16:33.428Z,16.30
2022-10-23T15:19:00.679Z,16.20
2022-10-23T15:21:28.037Z,16.10
2022-10-23T15:23:55.423Z,16.10
2022-10-23T15:26:23.838Z,16.00
2022-10-23T15:28:56.823Z,15.90
2022-10-23T15:31:30.297Z,15.80
2022-10-23T15:33:58.699Z,15.70
2022-10-23T15:36:26.723Z,15.60
2022-10-23T15:38:53.954Z,15.60
2022-10-23T15:41:27.811Z,15.40
2022-10-23T15:43:55.253Z,15.30
2022-10-23T15:46:22.853Z,15.20
2022-10-23T15:48:50.348Z,15.20
2022-10-23T15:51:17.866Z,15.00
2022-10-23T15:53:45.178Z,14.90
2022-10-23T15:56:12.865Z,14.90
2022-10-23T15:58:40.243Z,14.80
2022-10-23T16:01:08.169Z,14.70
2022-10-23T16:03:37.085Z,14.70
2022-10-23T16:06:05.936Z,14.70
2022-10-23T16:08:33.322Z,14.70
2022-10-23T16:11:00.742Z,14.70
2022-10-23T16:13:28.402Z,14.70
2022-10-23T16:15:55.631Z,14.70
2022-10-23T16:18:23.739Z,14.80
2022-10-23T16:20:51.359Z,14.80
2022-10-23T16:23:18.707Z,14.90
2022-10-23T16:25:46.555Z,14.90
2022-10-23T16:28:13.848Z,15.00
2022-10-23T16:30:43.175Z,15.10
2022-10-23T16:33:10.583Z,15.10
2022-10-23T16:35:37.984Z,15.20
2022-10-23T16:38:14.381Z,15.20
2022-10-23T16:40:41.857Z,15.20
2022-10-23T16:43:39.166Z,15.20
2022-10-23T16:46:19.071Z,15.30
2022-10-23T16:48:46.872Z,15.20
2022-10-23T16:51:17.524Z,15.20
2022-10-23T16:53:46.140Z,15.20
2022-10-23T16:56:15.932Z,15.20
2022-10-23T16:58:44.089Z,15.20
2022-10-23T17:01:11.415Z,15.10
2022-10-23T17:03:45.947Z,15.00
2022-10-23T17:06:17.308Z,14.90
2022-10-23T17:08:45.513Z,14.80
2022-10-23T17:11:18.866Z,14.70
2022-10-23T17:13:59.322Z,14.50
2022-10-23T17:16:48.554Z,14.50
2022-10-23T17:19:39.683Z,14.50
2022-10-23T17:22:10.379Z,14.40
2022-10-23T17:24:39.553Z,14.30
2022-10-23T17:27:07.163Z,14.30
2022-10-23T17:29:34.707Z,14.30
2022-10-23T17:32:02.005Z,14.20
2022-10-23T17:34:29.516Z,14.10
2022-10-23T17:36:57.115Z,14.10
2022-10-23T17:39:28.469Z,14.10
2022-10-23T17:41:56.606Z,14.00
2022-10-23T17:44:24.581Z,14.00
2022-10-23T17:46:55.560Z,14.00
2022-10-23T17:49:23.928Z,14.00
2022-10-23T17:51:54.301Z,14.00
2022-10-23T17:54:22.199Z,13.90
2022-10-23T17:56:49.510Z,13.90
2022-10-23T17:59:19.714Z,13.90
2022-10-23T18:01:48.522Z,13.90
2022-10-23T18:04:18.109Z,13.90
2022-10-23T18:06:52.349Z,14.00
2022-10-23T18:09:20.797Z,14.10
2022-10-23T18:11:48.664Z,14.20
2022-10-23T18:14:18.206Z,14.30
2022-10-23T18:16:46.223Z,14.40
2022-10-23T18:19:14.943Z,14.40
2022-10-23T18:21:42.371Z,14.50
2022-10-23T18:24:10.267Z,14.60
2022-10-23T18:26:39.287Z,14.60
2022-10-23T18:29:08.493Z,14.70
2022-10-23T18:31:37.526Z,14.80
2022-10-23T18:34:08.308Z,14.90
2022-10-23T18:36:38.728Z,14.90
2022-10-23T18:39:09.055Z,14.90
2022-10-23T18:41:39.582Z,15.00
2022-10-23T18:44:07.928Z,15.00
2022-10-23T18:46:36.219Z,15.00
2022-10-23T18:49:04.030Z,15.00
2022-10-23T18:51:34.091Z,15.10
2022-10-23T18:54:07.765Z,15.10
2022-10-23T18:56:36.039Z,15.10
2022-10-23T18:59:05.695Z,15.10
2022-10-23T19:01:33.789Z,15.20
2022-10-23T19:04:02.522Z,15.20
2022-10-23T19:06:33.301Z,15.20
2022-10-23T19:09:00.637Z,15.20
2022-10-23T19:11:28.542Z,15.20
2022-10-23T19:13:55.804Z,15.30
2022-10-23T19:16:49.845Z,15.30
2022-10-23T19:19:24.772Z,15.30
2022-10-23T19:21:53.679Z,15.40
2022-10-23T19:24:37.271Z,15.40
2022-10-23T19:27:05.293Z,15.40
2022-10-23T19:29:33.583Z,15.40
2022-10-23T19:32:00.997Z,15.50
2022-10-23T19:34:28.664Z,15.50
2022-10-23T19:36:55.991Z,15.50
2022-10-23T19:39:25.364Z,15.60
2022-10-23T19:41:53.918Z,15.60
2022-10-23T19:44:21.895Z,15.60
2022-10-23T19:46:49.526Z,15.60
2022-10-23T19:49:17.704Z,15.60
2022-10-23T19:51:50.718Z,15.60
2022-10-23T19:54:20.441Z,15.70
2022-10-23T19:56:48.294Z,15.70
2022-10-23T19:59:15.807Z,15.70
2022-10-23T20:01:46.392Z,15.80
2022-10-23T20:04:18.344Z,15.80
2022-10-23T20:06:46.104Z,15.80
2022-10-23T20:09:13.758Z,15.80
2022-10-23T20:11:41.583Z,15.80
2022-10-23T20:14:09.104Z,15.80
2022-10-23T20:16:38.699Z,15.80
2022-10-23T20:19:09.355Z,15.80
2022-10-23T20:21:38.781Z,15.80
2022-10-23T20:24:07.296Z,15.80
2022-10-23T20:26:34.942Z,15.90
2022-10-23T20:29:02.209Z,15.90
2022-10-23T20:31:29.455Z,15.90
2022-10-23T20:33:57.215Z,15.80
2022-10-23T20:36:45.411Z,15.90
2022-10-23T20:39:21.511Z,15.90
2022-10-23T20:41:48.972Z,15.90
2022-10-23T20:46:50.736Z,15.90
2022-10-23T20:49:19.156Z,15.90
2022-10-23T20:51:54.818Z,15.90
2022-10-23T20:54:28.928Z,15.90
2022-10-23T20:57:00.009Z,15.90
2022-10-23T20:59:27.452Z,15.80
2022-10-23T21:01:56.485Z,15.80
2022-10-23T21:04:27.809Z,15.80
2022-10-23T21:07:09.515Z,15.80
2022-10-23T21:09:39.083Z,15.80
2022-10-23T21:12:06.828Z,15.80
2022-10-23T21:14:35.080Z,15.70
2022-10-23T21:17:02.800Z,15.70
2022-10-23T21:19:30.061Z,15.70
2022-10-23T21:21:57.312Z,15.70
2022-10-23T21:24:24.631Z,15.70
2022-10-23T21:26:52.248Z,15.70
2022-10-23T21:29:20.602Z,15.80
2022-10-23T21:31:55.635Z,15.80
2022-10-23T21:34:24.846Z,15.80
2022-10-23T21:37:13.095Z,15.80
2022-10-23T21:39:39.535Z,15.80
2022-10-23T21:42:06.892Z,15.80
2022-10-23T21:44:34.287Z,15.80
2022-10-23T21:47:01.507Z,15.80
2022-10-23T21:49:29.267Z,15.80
2022-10-23T21:51:56.845Z,15.90
2022-10-23T21:54:24.245Z,15.80
2022-10-23T21:56:56.029Z,15.80
2022-10-23T21:59:30.031Z,15.90
2022-10-23T22:01:59.139Z,15.80
2022-10-23T22:04:26.673Z,15.80
2022-10-23T22:06:54.117Z,15.80
2022-10-23T22:09:22.197Z,15.80
2022-10-23T22:11:51.225Z,15.80
2022-10-23T22:14:18.873Z,15.80
2022-10-23T22:16:47.105Z,15.80
2022-10-23T22:19:16.887Z,15.80
2022-10-23T22:21:44.599Z,15.80
2022-10-23T22:24:11.925Z,15.80
2022-10-23T22:26:45.050Z,15.90
2022-10-23T22:29:14.884Z,15.90
2022-10-23T22:31:45.583Z,15.80
2022-10-23T22:34:27.019Z,15.80
2022-10-23T22:37:10.186Z,15.80
2022-10-23T22:39:38.133Z,15.80
2022-10-23T22:42:05.475Z,15.80
2022-10-23T22:44:33.095Z,15.80
2022-10-23T22:47:00.432Z,15.90
2022-10-23T22:49:27.918Z,15.90
2022-10-23T22:51:55.155Z,15.90
2022-10-23T22:54:22.438Z,15.90
2022-10-23T22:56:49.708Z,15.90
2022-10-23T22:59:16.932Z,15.90
2022-10-23T23:01:47.019Z,15.90
2022-10-23T23:04:37.902Z,15.90
2022-10-23T23:07:11.384Z,16.00
2022-10-23T23:09:43.540Z,16.00
2022-10-23T23:12:13.165Z,16.00
2022-10-23T23:14:41.764Z,16.00
2022-10-23T23:17:09.882Z,16.00
2022-10-23T23:19:37.651Z,16.00
2022-10-23T23:22:05.428Z,16.00
2022-10-23T23:24:32.972Z,15.90
2022-10-23T23:27:00.422Z,16.00
2022-10-23T23:29:29.441Z,16.00
2022-10-23T23:31:56.709Z,16.00
2022-10-23T23:34:23.961Z,16.00
2022-10-23T23:36:51.345Z,16.00
2022-10-23T23:39:18.677Z,16.00
2022-10-23T23:41:45.890Z,16.00
2022-10-23T23:44:13.198Z,16.00
2022-10-23T23:46:40.850Z,16.00
2022-10-23T23:49:08.258Z,16.00
2022-10-23T23:51:35.887Z,16.00
2022-10-23T23:54:03.760Z,16.00
2022-10-23T23:56:32.085Z,16.00
2022-10-23T23:58:59.683Z,16.00
